createdAt,value
2018-05-31T00:01:36.405Z,61.10
2018-05-31T00:04:03.785Z,59.60
2018-05-31T00:06:30.623Z,59.50
2018-05-31T00:08:57.005Z,60.50
2018-05-31T00:11:23.386Z,60.60
2018-05-31T00:13:49.766Z,59.40
2018-05-31T00:16:16.157Z,60.20
2018-05-31T00:18:42.534Z,60.00
2018-05-31T00:21:08.946Z,60.40
2018-05-31T00:23:35.364Z,60.00
2018-05-31T00:26:02.089Z,60.30
2018-05-31T00:28:28.475Z,61.10
2018-05-31T00:30:54.849Z,61.90
2018-05-31T00:33:21.269Z,63.60
2018-05-31T00:35:48.458Z,65.10
2018-05-31T00:38:14.852Z,65.00
2018-05-31T00:40:42.224Z,65.60
2018-05-31T00:43:08.646Z,65.60
2018-05-31T00:45:35.816Z,67.00
2018-05-31T00:48:02.194Z,67.00
2018-05-31T00:50:28.597Z,67.30
2018-05-31T00:52:54.981Z,68.40
2018-05-31T00:55:40.550Z,67.40
2018-05-31T00:58:07.711Z,68.00
2018-05-31T01:00:34.939Z,67.50
2018-05-31T01:03:01.316Z,67.40
2018-05-31T01:05:28.054Z,67.70
2018-05-31T01:07:54.448Z,66.60
2018-05-31T01:10:20.908Z,66.80
2018-05-31T01:12:48.046Z,66.70
2018-05-31T01:15:14.703Z,66.40
2018-05-31T01:17:41.100Z,66.70
2018-05-31T01:20:07.512Z,66.60
2018-05-31T01:22:34.691Z,67.10
2018-05-31T01:25:01.877Z,67.10
2018-05-31T01:27:28.255Z,67.00
2018-05-31T01:29:54.809Z,66.50
2018-05-31T01:32:21.963Z,65.90
2018-05-31T01:34:49.281Z,66.60
2018-05-31T01:37:15.714Z,66.60
2018-05-31T01:39:42.122Z,66.60
2018-05-31T01:42:08.605Z,66.80
2018-05-31T01:44:35.774Z,66.90
2018-05-31T01:47:02.900Z,66.10
2018-05-31T01:49:29.925Z,66.20
2018-05-31T01:51:56.390Z,66.20
2018-05-31T01:54:22.779Z,66.70
2018-05-31T01:56:49.265Z,67.00
2018-05-31T01:59:16.417Z,68.10
2018-05-31T02:01:43.867Z,68.50
2018-05-31T02:04:11.002Z,68.50
2018-05-31T02:06:37.419Z,68.00
2018-05-31T02:09:03.915Z,68.50
2018-05-31T02:11:30.317Z,68.50
2018-05-31T02:13:57.488Z,68.40
2018-05-31T02:16:24.129Z,68.30
2018-05-31T02:18:50.866Z,69.70
2018-05-31T02:21:17.276Z,68.80
2018-05-31T02:23:44.453Z,69.80
2018-05-31T02:26:10.881Z,68.90
2018-05-31T02:28:37.296Z,68.40
2018-05-31T02:31:04.413Z,69.40
2018-05-31T02:33:30.844Z,69.20
2018-05-31T02:35:57.283Z,69.70
2018-05-31T02:38:23.743Z,69.70
2018-05-31T02:40:50.998Z,69.80
2018-05-31T02:43:18.209Z,69.90
2018-05-31T02:45:44.685Z,69.80
2018-05-31T02:48:11.830Z,69.20
2018-05-31T02:50:38.982Z,69.20
2018-05-31T02:53:06.110Z,69.20
2018-05-31T02:55:32.537Z,69.10
2018-05-31T02:57:59.790Z,69.20
2018-05-31T03:00:26.473Z,69.30
2018-05-31T03:02:52.993Z,68.10
2018-05-31T03:05:20.112Z,69.70
2018-05-31T03:07:46.553Z,69.70
2018-05-31T03:10:13.014Z,70.30
2018-05-31T03:12:39.503Z,70.60
2018-05-31T03:15:05.887Z,70.70
2018-05-31T03:17:32.279Z,71.30
2018-05-31T03:19:58.650Z,70.90
2018-05-31T03:22:25.294Z,71.20
2018-05-31T03:24:52.332Z,70.80
2018-05-31T03:27:18.712Z,70.00
2018-05-31T03:29:45.179Z,70.40
2018-05-31T03:32:12.384Z,70.80
2018-05-31T03:34:38.741Z,70.80
2018-05-31T03:37:05.120Z,70.50
2018-05-31T03:39:31.529Z,71.00
2018-05-31T03:41:57.934Z,70.80
2018-05-31T03:44:24.303Z,70.30
2018-05-31T03:46:50.746Z,70.30
2018-05-31T03:49:17.490Z,70.20
2018-05-31T03:51:43.919Z,70.30
2018-05-31T03:54:10.306Z,70.60
2018-05-31T03:56:36.791Z,70.70
2018-05-31T03:59:03.169Z,70.20
2018-05-31T04:01:29.654Z,70.90
2018-05-31T04:03:56.747Z,71.60
2018-05-31T04:06:23.450Z,71.60
2018-05-31T04:08:49.875Z,71.70
2018-05-31T04:11:16.308Z,71.50
2018-05-31T04:13:42.761Z,71.60
2018-05-31T04:16:09.164Z,71.90
2018-05-31T04:18:35.533Z,71.50
2018-05-31T04:21:02.048Z,71.80
2018-05-31T04:23:28.494Z,71.60
2018-05-31T04:25:54.909Z,71.70
2018-05-31T04:28:21.329Z,72.00
2018-05-31T04:30:47.736Z,71.90
2018-05-31T04:33:15.131Z,71.40
2018-05-31T04:35:41.534Z,71.40
2018-05-31T04:38:08.675Z,70.90
2018-05-31T04:40:35.893Z,70.50
2018-05-31T04:43:02.268Z,70.50
2018-05-31T04:45:28.704Z,70.00
2018-05-31T04:47:55.855Z,69.80
2018-05-31T04:50:22.995Z,69.70
2018-05-31T04:52:50.286Z,69.70
2018-05-31T04:55:16.786Z,69.50
2018-05-31T04:57:43.926Z,68.30
2018-05-31T05:00:14.818Z,68.40
2018-05-31T05:02:44.772Z,68.40
2018-05-31T05:05:14.562Z,68.20
2018-05-31T05:07:43.577Z,68.20
2018-05-31T05:10:13.611Z,67.40
2018-05-31T05:12:41.989Z,67.30
2018-05-31T05:15:08.466Z,66.70
2018-05-31T05:17:34.937Z,66.60
2018-05-31T05:20:01.334Z,66.50
2018-05-31T05:22:27.822Z,66.20
2018-05-31T05:24:55.005Z,66.40
2018-05-31T05:27:21.732Z,66.40
2018-05-31T05:29:48.117Z,66.00
2018-05-31T05:32:14.573Z,66.10
2018-05-31T05:34:41.684Z,65.40
2018-05-31T05:37:08.705Z,65.40
2018-05-31T05:39:35.217Z,65.20
2018-05-31T05:42:02.353Z,64.70
2018-05-31T05:44:29.502Z,64.30
2018-05-31T05:46:56.635Z,63.70
2018-05-31T05:49:23.765Z,63.30
2018-05-31T05:51:50.195Z,63.20
2018-05-31T05:54:16.624Z,63.30
2018-05-31T05:56:43.056Z,62.90
2018-05-31T05:59:09.447Z,63.00
2018-05-31T06:01:35.906Z,63.20
2018-05-31T06:04:02.323Z,62.50
2018-05-31T06:06:28.757Z,62.20
2018-05-31T06:08:55.179Z,61.90
2018-05-31T06:11:21.557Z,62.20
2018-05-31T06:13:48.267Z,62.00
2018-05-31T06:16:14.965Z,61.80
2018-05-31T06:18:41.403Z,61.80
2018-05-31T06:21:08.631Z,60.10
2018-05-31T06:23:35.095Z,60.00
2018-05-31T06:26:02.558Z,60.20
2018-05-31T06:28:29.222Z,60.30
2018-05-31T06:30:55.654Z,60.00
2018-05-31T06:33:22.095Z,60.00
2018-05-31T06:35:48.851Z,59.70
2018-05-31T06:38:15.291Z,58.90
2018-05-31T06:40:41.647Z,59.00
2018-05-31T06:43:08.322Z,58.90
2018-05-31T06:45:34.777Z,58.40
2018-05-31T06:48:01.255Z,58.00
2018-05-31T06:50:28.141Z,57.30
2018-05-31T06:52:54.802Z,57.20
2018-05-31T06:55:21.716Z,57.30
2018-05-31T06:57:48.146Z,56.70
2018-05-31T07:00:15.353Z,56.00
2018-05-31T07:02:41.702Z,56.00
2018-05-31T07:05:08.089Z,55.40
2018-05-31T07:07:34.664Z,55.00
2018-05-31T07:10:01.333Z,54.90
2018-05-31T07:12:28.894Z,53.90
2018-05-31T07:14:56.085Z,53.90
2018-05-31T07:17:22.500Z,53.90
2018-05-31T07:19:48.873Z,54.00
2018-05-31T07:22:15.249Z,54.00
2018-05-31T07:24:41.702Z,54.20
2018-05-31T07:27:08.108Z,54.30
2018-05-31T07:29:34.941Z,53.80
2018-05-31T07:32:02.098Z,53.60
2018-05-31T07:34:28.517Z,53.90
2018-05-31T07:36:55.657Z,52.60
2018-05-31T07:39:22.002Z,52.60
2018-05-31T07:41:49.174Z,52.20
2018-05-31T07:44:15.593Z,52.20
2018-05-31T07:46:41.953Z,51.10
2018-05-31T07:49:08.378Z,51.80
2018-05-31T07:51:34.854Z,51.50
2018-05-31T07:54:01.211Z,51.20
2018-05-31T07:56:28.399Z,50.50
2018-05-31T07:58:55.613Z,49.40
2018-05-31T08:01:22.724Z,49.60
2018-05-31T08:03:49.182Z,49.60
2018-05-31T08:06:15.609Z,49.80
2018-05-31T08:08:42.989Z,48.50
2018-05-31T08:11:10.216Z,49.00
2018-05-31T08:13:36.590Z,49.00
2018-05-31T08:16:03.038Z,49.20
2018-05-31T08:18:29.500Z,48.90
2018-05-31T08:20:55.893Z,48.30
2018-05-31T08:23:22.283Z,48.60
2018-05-31T08:25:49.420Z,47.70
2018-05-31T08:28:15.855Z,47.50
2018-05-31T08:30:42.325Z,46.50
2018-05-31T08:33:08.695Z,47.00
2018-05-31T08:35:35.137Z,46.40
2018-05-31T08:38:01.581Z,46.30
2018-05-31T08:40:27.951Z,45.80
2018-05-31T08:42:54.377Z,46.20
2018-05-31T08:45:21.573Z,45.40
2018-05-31T08:47:48.023Z,44.60
2018-05-31T08:50:14.423Z,44.30
2018-05-31T08:52:40.826Z,44.40
2018-05-31T08:55:07.968Z,44.10
2018-05-31T08:57:35.109Z,42.10
2018-05-31T09:00:02.263Z,42.00
2018-05-31T09:02:29.395Z,41.80
2018-05-31T09:04:57.446Z,41.80
2018-05-31T09:07:23.881Z,41.80
2018-05-31T09:09:50.302Z,42.70
2018-05-31T09:12:17.104Z,41.30
2018-05-31T09:14:44.460Z,41.40
2018-05-31T09:17:11.813Z,41.00
2018-05-31T09:19:38.983Z,40.20
2018-05-31T09:22:05.378Z,40.20
2018-05-31T09:24:31.717Z,39.20
2018-05-31T09:26:58.871Z,39.20
2018-05-31T09:29:26.204Z,38.60
2018-05-31T09:31:52.603Z,38.60
2018-05-31T09:34:18.988Z,37.70
2018-05-31T09:36:46.198Z,37.10
2018-05-31T09:39:12.604Z,37.00
2018-05-31T09:41:39.037Z,37.20
2018-05-31T09:44:05.519Z,38.20
2018-05-31T09:46:31.905Z,39.00
2018-05-31T09:48:58.311Z,38.20
2018-05-31T09:51:25.180Z,37.20
2018-05-31T09:53:51.547Z,36.70
2018-05-31T09:56:18.013Z,36.80
2018-05-31T09:58:45.183Z,35.90
2018-05-31T10:01:11.613Z,35.80
2018-05-31T10:03:37.985Z,35.10
2018-05-31T10:06:04.438Z,35.40
2018-05-31T10:08:30.949Z,35.50
2018-05-31T10:10:57.635Z,34.70
2018-05-31T10:13:25.449Z,34.70
2018-05-31T10:15:51.826Z,34.70
2018-05-31T10:18:18.959Z,33.90
2018-05-31T10:20:45.357Z,33.90
2018-05-31T10:23:11.739Z,32.70
2018-05-31T10:25:38.878Z,31.90
2018-05-31T10:28:05.323Z,31.80
2018-05-31T10:30:32.687Z,32.30
2018-05-31T10:32:59.853Z,32.30
2018-05-31T10:35:26.470Z,32.30
2018-05-31T10:37:53.637Z,32.30
2018-05-31T10:40:20.093Z,32.30
2018-05-31T10:42:46.540Z,32.10
2018-05-31T10:45:12.929Z,32.20
2018-05-31T10:47:39.393Z,32.20
2018-05-31T10:50:05.756Z,32.20
2018-05-31T10:52:32.149Z,32.10
2018-05-31T10:54:58.519Z,32.00
2018-05-31T10:57:24.887Z,32.00
2018-05-31T10:59:51.283Z,32.00
2018-05-31T11:02:17.926Z,32.10
2018-05-31T11:04:44.283Z,31.50
2018-05-31T11:07:11.439Z,30.40
2018-05-31T11:09:37.867Z,30.40
2018-05-31T11:12:04.977Z,31.60
2018-05-31T11:14:31.381Z,31.60
2018-05-31T11:16:57.829Z,31.30
2018-05-31T11:19:24.229Z,32.40
2018-05-31T11:21:50.591Z,32.10
2018-05-31T11:24:16.950Z,31.70
2018-05-31T11:26:43.365Z,31.10
2018-05-31T11:29:09.755Z,30.60
2018-05-31T11:31:36.148Z,31.70
2018-05-31T11:34:02.621Z,32.40
2018-05-31T11:36:29.245Z,32.50
2018-05-31T11:38:55.699Z,34.40
2018-05-31T11:41:22.074Z,34.20
2018-05-31T11:43:48.406Z,34.80
2018-05-31T11:46:14.787Z,34.10
2018-05-31T11:48:41.177Z,33.70
2018-05-31T11:51:07.836Z,34.00
2018-05-31T11:53:35.081Z,33.50
2018-05-31T11:56:02.211Z,32.40
2018-05-31T11:58:28.844Z,32.40
2018-05-31T12:00:55.493Z,32.00
2018-05-31T12:03:21.884Z,31.70
2018-05-31T12:05:48.303Z,30.30
2018-05-31T12:08:14.803Z,30.80
2018-05-31T12:10:41.123Z,30.90
2018-05-31T12:13:07.482Z,31.00
2018-05-31T12:15:33.857Z,30.00
2018-05-31T12:18:00.297Z,28.90
2018-05-31T12:20:26.672Z,29.00
2018-05-31T12:22:53.798Z,29.00
2018-05-31T12:25:20.236Z,28.90
2018-05-31T12:27:46.585Z,28.40
2018-05-31T12:30:13.722Z,29.40
2018-05-31T12:32:40.841Z,29.20
2018-05-31T12:35:07.181Z,29.20
2018-05-31T12:37:33.606Z,29.20
2018-05-31T12:40:00.288Z,29.60
2018-05-31T12:42:26.813Z,29.80
2018-05-31T12:44:54.276Z,28.80
2018-05-31T12:47:21.373Z,29.00
2018-05-31T12:49:47.797Z,29.10
2018-05-31T12:52:14.172Z,29.50
2018-05-31T12:54:41.297Z,29.80
2018-05-31T12:57:07.675Z,29.70
2018-05-31T12:59:34.075Z,29.40
2018-05-31T13:02:00.739Z,29.70
2018-05-31T13:04:27.883Z,29.00
2018-05-31T13:06:54.999Z,29.70
2018-05-31T13:09:21.450Z,29.60
2018-05-31T13:11:47.852Z,29.10
2018-05-31T13:14:14.248Z,29.00
2018-05-31T13:16:40.612Z,29.00
2018-05-31T13:19:07.278Z,30.30
2018-05-31T13:21:33.792Z,31.90
2018-05-31T13:24:00.171Z,32.20
2018-05-31T13:26:27.283Z,35.40
2018-05-31T13:28:53.680Z,35.30
2018-05-31T13:31:20.039Z,37.60
2018-05-31T13:33:47.606Z,39.20
2018-05-31T13:36:14.060Z,39.80
2018-05-31T13:38:41.157Z,39.50
2018-05-31T13:41:07.661Z,39.50
2018-05-31T13:43:34.125Z,39.70
2018-05-31T13:46:00.535Z,41.00
2018-05-31T13:48:27.136Z,39.70
2018-05-31T13:50:53.667Z,41.40
2018-05-31T13:53:20.284Z,41.40
2018-05-31T13:55:46.934Z,41.50
2018-05-31T13:58:13.425Z,41.60
2018-05-31T14:00:39.992Z,40.40
2018-05-31T14:03:06.489Z,40.50
2018-05-31T14:05:33.145Z,40.10
2018-05-31T14:07:59.511Z,39.20
2018-05-31T14:10:26.214Z,39.60
2018-05-31T14:12:52.577Z,41.20
2018-05-31T14:15:19.120Z,42.20
2018-05-31T14:17:45.471Z,44.60
2018-05-31T14:20:12.624Z,47.00
2018-05-31T14:22:39.949Z,47.20
2018-05-31T14:25:06.350Z,47.00
2018-05-31T14:27:32.810Z,46.80
2018-05-31T14:29:59.391Z,46.40
2018-05-31T14:32:26.260Z,44.70
2018-05-31T14:34:52.801Z,42.60
2018-05-31T14:37:19.327Z,39.10
2018-05-31T14:39:45.741Z,38.20
2018-05-31T14:42:12.372Z,37.60
2018-05-31T14:44:38.731Z,39.10
2018-05-31T14:47:05.263Z,40.20
2018-05-31T14:49:31.657Z,42.10
2018-05-31T14:51:58.776Z,44.60
2018-05-31T14:54:25.374Z,44.30
2018-05-31T14:56:51.804Z,44.70
2018-05-31T14:59:18.103Z,45.10
2018-05-31T15:01:45.194Z,44.20
2018-05-31T15:04:12.179Z,44.10
2018-05-31T15:06:38.551Z,42.80
2018-05-31T15:09:05.025Z,39.20
2018-05-31T15:11:31.581Z,40.20
2018-05-31T15:13:58.732Z,40.00
2018-05-31T15:16:25.101Z,39.80
2018-05-31T15:18:51.671Z,41.80
2018-05-31T15:21:18.018Z,41.80
2018-05-31T15:23:44.393Z,41.70
2018-05-31T15:26:17.762Z,39.90
2018-05-31T15:28:44.887Z,39.20
2018-05-31T15:31:11.293Z,39.10
2018-05-31T15:33:37.869Z,39.40
2018-05-31T15:36:05.071Z,40.60
2018-05-31T15:38:31.544Z,40.00
2018-05-31T15:40:58.157Z,39.70
2018-05-31T15:43:24.742Z,41.40
2018-05-31T15:45:51.888Z,42.30
2018-05-31T15:48:19.069Z,43.20
2018-05-31T15:50:45.519Z,43.20
2018-05-31T15:53:11.961Z,44.00
2018-05-31T15:55:39.981Z,43.60
2018-05-31T15:58:07.132Z,44.10
2018-05-31T16:00:34.282Z,43.90
2018-05-31T16:03:01.648Z,43.20
2018-05-31T16:05:29.980Z,42.70
2018-05-31T16:07:56.855Z,42.60
2018-05-31T16:10:23.988Z,42.00
2018-05-31T16:12:51.501Z,41.90
2018-05-31T16:15:18.214Z,41.90
2018-05-31T16:17:45.381Z,42.50
2018-05-31T16:20:11.925Z,42.50
2018-05-31T16:22:38.449Z,43.80
2018-05-31T16:25:04.821Z,43.70
2018-05-31T16:27:31.257Z,43.50
2018-05-31T16:29:58.562Z,43.00
2018-05-31T16:32:25.172Z,42.90
2018-05-31T16:34:52.402Z,43.80
2018-05-31T16:37:19.150Z,43.80
2018-05-31T16:39:45.991Z,43.90
2018-05-31T16:42:12.377Z,44.10
2018-05-31T16:44:39.477Z,43.10
2018-05-31T16:47:06.282Z,43.10
2018-05-31T16:49:32.705Z,42.70
2018-05-31T16:51:59.090Z,41.80
2018-05-31T16:54:26.340Z,42.20
2018-05-31T16:56:53.887Z,42.60
2018-05-31T16:59:21.013Z,41.80
2018-05-31T17:01:47.476Z,41.10
2018-05-31T17:04:13.940Z,40.50
2018-05-31T17:06:40.313Z,39.50
2018-05-31T17:09:06.943Z,38.40
2018-05-31T17:11:33.596Z,37.50
2018-05-31T17:13:59.990Z,36.00
2018-05-31T17:16:27.033Z,36.30
2018-05-31T17:18:54.265Z,36.00
2018-05-31T17:21:20.735Z,35.90
2018-05-31T17:23:47.120Z,33.00
2018-05-31T17:26:14.626Z,33.10
2018-05-31T17:28:42.326Z,33.00
2018-05-31T17:31:08.756Z,34.10
2018-05-31T17:33:35.669Z,34.90
2018-05-31T17:36:02.067Z,33.60
2018-05-31T17:38:29.247Z,35.50
2018-05-31T17:40:55.672Z,35.50
2018-05-31T17:43:22.124Z,36.50
2018-05-31T17:45:49.277Z,38.50
2018-05-31T17:48:16.712Z,38.60
2018-05-31T17:50:43.092Z,39.80
2018-05-31T17:53:09.454Z,40.50
2018-05-31T17:55:35.857Z,41.70
2018-05-31T17:58:03.022Z,42.70
2018-05-31T18:00:30.377Z,43.30
2018-05-31T18:02:57.508Z,43.50
2018-05-31T18:05:23.967Z,43.50
2018-05-31T18:07:50.455Z,43.80
2018-05-31T18:10:18.161Z,44.30
2018-05-31T18:12:45.286Z,44.80
2018-05-31T18:15:11.783Z,44.70
2018-05-31T18:17:38.261Z,45.40
2018-05-31T18:20:04.925Z,45.50
2018-05-31T18:22:31.380Z,46.00
2018-05-31T18:24:57.778Z,46.10
2018-05-31T18:27:25.079Z,46.10
2018-05-31T18:29:51.478Z,46.00
2018-05-31T18:32:17.933Z,46.10
2018-05-31T18:34:44.322Z,46.80
2018-05-31T18:37:10.932Z,47.50
2018-05-31T18:39:38.381Z,47.90
2018-05-31T18:42:05.104Z,47.90
2018-05-31T18:44:31.506Z,48.20
2018-05-31T18:46:57.914Z,48.50
2018-05-31T18:49:24.668Z,48.50
2018-05-31T18:51:51.326Z,48.60
2018-05-31T18:54:18.242Z,48.70
2018-05-31T18:56:46.163Z,48.90
2018-05-31T18:59:14.341Z,48.90
2018-05-31T19:01:41.172Z,49.10
2018-05-31T19:04:07.589Z,49.20
2018-05-31T19:06:34.128Z,49.40
2018-05-31T19:09:00.778Z,49.30
2018-05-31T19:11:27.650Z,49.80
2018-05-31T19:13:58.355Z,50.10
2018-05-31T19:16:24.886Z,50.20
2018-05-31T19:18:58.389Z,50.40
2018-05-31T19:21:25.009Z,50.00
2018-05-31T19:23:51.728Z,50.10
2018-05-31T19:26:18.177Z,50.50
2018-05-31T19:28:44.633Z,49.80
2018-05-31T19:31:11.976Z,50.60
2018-05-31T19:33:38.488Z,50.30
2018-05-31T19:36:11.079Z,50.50
2018-05-31T19:38:37.707Z,50.50
2018-05-31T19:41:04.115Z,50.40
2018-05-31T19:43:37.344Z,50.50
2018-05-31T19:46:03.724Z,50.40
2018-05-31T19:48:30.598Z,50.40
2018-05-31T19:50:57.749Z,50.80
2018-05-31T19:53:30.966Z,50.80
2018-05-31T19:55:57.435Z,50.70
2018-05-31T19:58:29.884Z,51.40
2018-05-31T20:01:02.375Z,51.10
2018-05-31T20:03:28.767Z,51.50
2018-05-31T20:05:55.144Z,51.60
2018-05-31T20:08:21.674Z,52.30
2018-05-31T20:10:48.240Z,51.90
2018-05-31T20:13:15.772Z,51.80
2018-05-31T20:15:43.031Z,51.80
2018-05-31T20:18:10.766Z,52.00
2018-05-31T20:20:38.950Z,52.20
2018-05-31T20:23:05.788Z,52.20
2018-05-31T20:25:32.378Z,51.90
2018-05-31T20:27:59.980Z,52.40
2018-05-31T20:30:26.595Z,52.30
2018-05-31T20:32:56.539Z,52.40
2018-05-31T20:35:23.967Z,52.40
2018-05-31T20:37:50.386Z,52.40
2018-05-31T20:40:17.889Z,52.30
2018-05-31T20:42:44.257Z,52.30
2018-05-31T20:45:10.928Z,52.40
2018-05-31T20:47:37.741Z,52.30
2018-05-31T20:50:04.860Z,52.30
2018-05-31T20:52:31.482Z,52.30
2018-05-31T20:54:57.989Z,52.40
2018-05-31T20:57:24.465Z,52.40
2018-05-31T20:59:50.934Z,52.40
2018-05-31T21:02:17.321Z,53.00
2018-05-31T21:04:44.051Z,52.90
2018-05-31T21:07:11.159Z,53.30
2018-05-31T21:09:37.641Z,53.30
2018-05-31T21:12:04.103Z,53.30
2018-05-31T21:14:30.577Z,53.50
2018-05-31T21:16:56.942Z,54.10
2018-05-31T21:19:23.375Z,53.90
2018-05-31T21:21:50.799Z,53.90
2018-05-31T21:24:17.207Z,53.90
2018-05-31T21:26:44.327Z,53.80
2018-05-31T21:29:10.959Z,53.70
2018-05-31T21:31:37.313Z,53.80
2018-05-31T21:34:05.836Z,54.10
2018-05-31T21:36:32.201Z,54.00
2018-05-31T21:38:58.640Z,54.00
2018-05-31T21:41:25.181Z,54.10
2018-05-31T21:43:51.572Z,54.40
2018-05-31T21:46:17.922Z,55.30
2018-05-31T21:48:44.410Z,56.10
2018-05-31T21:51:11.640Z,57.70
2018-05-31T21:53:38.058Z,57.70
2018-05-31T21:56:04.471Z,58.40
2018-05-31T21:58:30.851Z,58.90
2018-05-31T22:00:57.976Z,60.10
2018-05-31T22:03:24.746Z,60.00
2018-05-31T22:05:52.201Z,61.70
2018-05-31T22:08:19.404Z,54.50
2018-05-31T22:10:45.899Z,54.50
2018-05-31T22:13:12.327Z,55.10
2018-05-31T22:15:38.794Z,58.20
2018-05-31T22:18:05.237Z,60.70
2018-05-31T22:20:31.658Z,62.50
2018-05-31T22:22:58.117Z,66.70
2018-05-31T22:25:25.897Z,68.20
2018-05-31T22:27:53.036Z,72.50
2018-05-31T22:30:20.235Z,74.00
2018-05-31T22:32:46.616Z,74.10
2018-05-31T22:35:13.030Z,74.80
2018-05-31T22:37:39.426Z,74.80
2018-05-31T22:40:05.953Z,73.60
2018-05-31T22:42:32.431Z,73.40
2018-05-31T22:44:58.801Z,74.10
2018-05-31T22:47:25.925Z,77.50
2018-05-31T22:49:53.071Z,78.90
2018-05-31T22:52:19.468Z,78.80
2018-05-31T22:54:45.869Z,77.10
2018-05-31T22:57:12.250Z,77.80
2018-05-31T22:59:46.174Z,77.80
2018-05-31T23:02:12.571Z,75.00
2018-05-31T23:04:38.955Z,76.40
2018-05-31T23:07:06.077Z,76.00
2018-05-31T23:09:32.460Z,75.70
2018-05-31T23:11:58.832Z,77.40
2018-05-31T23:14:27.331Z,76.80
2018-05-31T23:16:54.825Z,75.00
2018-05-31T23:19:22.272Z,75.00
2018-05-31T23:21:48.685Z,74.70
2018-05-31T23:24:16.574Z,74.50
2018-05-31T23:26:43.816Z,75.20
2018-05-31T23:29:10.948Z,75.00
2018-05-31T23:31:37.341Z,74.80
2018-05-31T23:34:03.707Z,75.00
2018-05-31T23:36:31.617Z,75.40
2018-05-31T23:38:58.255Z,75.30
2018-05-31T23:41:25.385Z,77.60
2018-05-31T23:43:52.573Z,75.20
2018-05-31T23:46:19.151Z,75.30
2018-05-31T23:48:45.549Z,75.50
2018-05-31T23:51:11.946Z,76.30
2018-05-31T23:53:39.410Z,75.80
2018-05-31T23:56:05.798Z,75.80
2018-05-31T23:58:32.158Z,76.90
